CheckWX is a tool to help pilots better visualize weather data.  It is not intended as a substitute for an official pre-flight weather briefing.

14:49:30 UTC

UWOO TAF
Orenburg Central Airport
Orenburg, Russian Federation
TAF UWOO 231350Z 2315/2415 15003MPS 3100 BR OVC011 TX04/2410Z TNM04/2402Z TEMPO 2315/2406 10003MPS 0400 FZFG VV002

Mar-23@
15:00 UTC

Mar-23 @ 15:00 UTC

Mar-24@
15:00 UTC

Mar-24 @ 15:00 UTC

TAF UWOO 231350Z 2315/2415 15003MPS 3100 BR OVC011 TX04/2410Z TNM04/2402Z
Wind
  • 150° at 6 KTS
Conditions
Mist
Cloud Levels
  • Overcast at 1,100' AGL

Mar-23@
15:00 UTC

Mar-23 @ 15:00 UTC

Mar-24@
06:00 UTC

Mar-24 @ 06:00 UTC

TEMPO 2315/2406 10003MPS 0400 FZFG VV002

Temporary

Temporary Changes expected for less than half the time period

Wind
  • 100° at 6 KTS
Conditions
Freezing Fog
Cloud Levels
  • Vertical visibility at 200' AGL